Fountain City, Tennessee
Current Conditions -  °F | °C
As of 5:53 PM on Tuesday 21 Oct 2014 (Local Time) from KOQT Reporting Station
Scattered Clouds Scattered Clouds  
Wind Chill: 66°   Ceiling: Unl
Heat Index: 66°   Visibility: 10mi
Dew Point: 42°   Wind: 8mph
Humidity: 42%   Direction: 340°NNW
Pressure: 30.02"   Gusts: NA
Location:  36.1232°N, 83.9406°W
Report Text: KOQT 212153Z AUTO 34007KT 10SM SCT060 19/06 A3002 RMK AO2 SLP161 T01890056
Loading
Personal Weather Stations






























Interactive Weather Map
Tropical Storm Tracking
New forecast layout! Learn more

10-Day Weather Forecast

Advertisements
Track Severe Weather on mobile